KSUS METAR and TAF | Updated Today

KSUS METAR

Spirit of St Louis Airport

Observation time: 8 min. ago

KSUS 292254Z 17004KT 10SM CLR 13/M02 A2989 RMK AO2 SLP127 T01331017

Need help? Read our tutorial on how to read METARs or read the parsed version below.

Spirit of St Louis Airport (KSUS) METAR

  • Weather conditions on Mon, 29 Nov 2021 22:54:00 +0000 (8 min. ago):
  • Present conditions: Dry
  • Clouds: Clear skies
  • Visibility: 16093 meters
  • Wind: 170 degrees at 4 knots
  • Temperature: 13 celsius
  • Dew point: -2 celsius
  • Pressure: 29.89 inHg
  • Remarks: AO2 SLP127 T01331017


Useful to know...

KSUS TAF

Spirit of St Louis Airport

KSUS 291729Z 2918/3018 19010G20KT P6SM FEW250 FM292200 21008KT P6SM SKC FM300600 26006KT P6SM SKC
Observation time: 5:33 hr. ago
Need help? Read our tutorial on how to read TAFs or read the parsed version below.

Parsed version of TAF for Spirit of St Louis Airport (KSUS)

  • From 29 November at 18:00 UTC, to day 30 of the month at 18:00 UTC
  • Clouds: A few at 7620 meters
  • Wind: 190 degrees at 10
  • From day 29 of the month at 22:00 UTC
  • Clouds: No significant changes expected
  • Wind: 210 degrees at 8
  • From day 30 of the month at 06:00 UTC
  • Clouds: No significant changes expected
  • Wind: 260 degrees at 6